sensor_id;sensor_type;location;lat;lon;timestamp;pressure;altitude;pressure_sealevel;temperature;humidity
12913;BME280;6524;51.368;11.984;2022-10-19T04:02:33;101458.84;;;11.47;100.00
12913;BME280;6524;51.368;11.984;2022-10-19T04:07:33;101456.31;;;11.43;100.00
12913;BME280;6524;51.368;11.984;2022-10-19T04:12:33;101465.44;;;11.20;100.00
12913;BME280;6524;51.368;11.984;2022-10-19T04:17:34;101467.31;;;11.12;100.00
12913;BME280;6524;51.368;11.984;2022-10-19T04:22:34;101471.78;;;11.05;100.00
12913;BME280;6524;51.368;11.984;2022-10-19T04:27:34;101476.56;;;10.77;100.00
12913;BME280;6524;51.368;11.984;2022-10-19T04:32:34;101471.44;;;10.71;100.00
12913;BME280;6524;51.368;11.984;2022-10-19T04:37:35;101479.50;;;10.56;100.00
12913;BME280;6524;51.368;11.984;2022-10-19T04:42:35;101480.34;;;10.59;100.00
12913;BME280;6524;51.368;11.984;2022-10-19T04:47:35;101484.66;;;10.60;100.00
12913;BME280;6524;51.368;11.984;2022-10-19T04:52:36;101478.84;;;10.41;100.00
12913;BME280;6524;51.368;11.984;2022-10-19T04:57:36;101488.59;;;10.24;100.00
12913;BME280;6524;51.368;11.984;2022-10-19T05:02:41;101485.19;;;10.20;100.00
12913;BME280;6524;51.368;11.984;2022-10-19T05:07:42;101486.09;;;10.18;100.00
12913;BME280;6524;51.368;11.984;2022-10-19T05:12:42;101484.41;;;10.14;100.00
12913;BME280;6524;51.368;11.984;2022-10-19T05:17:42;101475.78;;;10.10;100.00
12913;BME280;6524;51.368;11.984;2022-10-19T05:22:42;101473.81;;;10.29;100.00
12913;BME280;6524;51.368;11.984;2022-10-19T05:27:43;101475.56;;;10.24;100.00
12913;BME280;6524;51.368;11.984;2022-10-19T05:32:44;101483.31;;;10.33;100.00
12913;BME280;6524;51.368;11.984;2022-10-19T05:37:44;101484.97;;;10.39;100.00
12913;BME280;6524;51.368;11.984;2022-10-19T05:42:44;101491.09;;;10.36;100.00
12913;BME280;6524;51.368;11.984;2022-10-19T05:47:45;101498.13;;;10.30;100.00
12913;BME280;6524;51.368;11.984;2022-10-19T05:52:45;101494.72;;;10.23;100.00
12913;BME280;6524;51.368;11.984;2022-10-19T05:57:45;101498.31;;;10.13;100.00
12913;BME280;6524;51.368;11.984;2022-10-19T06:02:46;101507.03;;;10.09;100.00
12913;BME280;6524;51.368;11.984;2022-10-19T06:07:46;101501.56;;;10.33;100.00
12913;BME280;6524;51.368;11.984;2022-10-19T06:12:46;101503.94;;;10.49;100.00
12913;BME280;6524;51.368;11.984;2022-10-19T06:17:47;101512.41;;;10.64;100.00
12913;BME280;6524;51.368;11.984;2022-10-19T06:22:47;101515.94;;;10.62;100.00
12913;BME280;6524;51.368;11.984;2022-10-19T06:27:47;101523.75;;;10.62;99.77
12913;BME280;6524;51.368;11.984;2022-10-19T06:32:48;101531.34;;;10.79;99.52
12913;BME280;6524;51.368;11.984;2022-10-19T06:37:48;101528.72;;;11.33;96.70
12913;BME280;6524;51.368;11.984;2022-10-19T06:42:49;101534.38;;;11.58;94.76
12913;BME280;6524;51.368;11.984;2022-10-19T06:47:49;101536.03;;;11.62;94.06
12913;BME280;6524;51.368;11.984;2022-10-19T06:52:49;101536.78;;;11.69;94.17
12913;BME280;6524;51.368;11.984;2022-10-19T06:57:50;101543.13;;;11.57;95.50
12913;BME280;6524;51.368;11.984;2022-10-19T07:02:50;101544.09;;;11.51;95.93
12913;BME280;6524;51.368;11.984;2022-10-19T07:07:51;101546.72;;;11.50;96.18
12913;BME280;6524;51.368;11.984;2022-10-19T07:12:59;101544.09;;;11.50;97.00
12913;BME280;6524;51.368;11.984;2022-10-19T07:17:59;101552.84;;;11.49;97.24
12913;BME280;6524;51.368;11.984;2022-10-19T07:23:00;101562.16;;;11.64;97.31
12913;BME280;6524;51.368;11.984;2022-10-19T07:28:02;101568.13;;;11.70;97.98
12913;BME280;6524;51.368;11.984;2022-10-19T07:33:02;101566.16;;;11.85;98.81
12913;BME280;6524;51.368;11.984;2022-10-19T07:38:04;101569.47;;;11.94;98.82
12913;BME280;6524;51.368;11.984;2022-10-19T07:43:04;101570.09;;;12.07;99.45
12913;BME280;6524;51.368;11.984;2022-10-19T07:48:05;101567.84;;;12.31;98.80
12913;BME280;6524;51.368;11.984;2022-10-19T07:53:05;101581.53;;;12.45;97.97
12913;BME280;6524;51.368;11.984;2022-10-19T07:58:06;101571.47;;;12.65;97.58
12913;BME280;6524;51.368;11.984;2022-10-19T08:03:09;101574.88;;;12.69;95.97
12913;BME280;6524;51.368;11.984;2022-10-19T08:08:09;101576.50;;;12.74;95.82
12913;BME280;6524;51.368;11.984;2022-10-19T08:13:10;101574.38;;;12.92;95.27
12913;BME280;6524;51.368;11.984;2022-10-19T08:18:13;101588.13;;;13.02;95.37
12913;BME280;6524;51.368;11.984;2022-10-19T08:23:13;101583.53;;;13.11;95.20
12913;BME280;6524;51.368;11.984;2022-10-19T08:28:14;101586.72;;;13.26;95.21
12913;BME280;6524;51.368;11.984;2022-10-19T08:33:14;101591.63;;;13.38;94.59
12913;BME280;6524;51.368;11.984;2022-10-19T08:38:14;101582.75;;;13.45;93.61
12913;BME280;6524;51.368;11.984;2022-10-19T08:43:34;101582.44;;;13.57;93.04
12913;BME280;6524;51.368;11.984;2022-10-19T08:48:40;101576.97;;;13.67;92.77
12913;BME280;6524;51.368;11.984;2022-10-19T08:53:50;101578.44;;;13.77;93.10
12913;BME280;6524;51.368;11.984;2022-10-19T09:04:27;101573.63;;;14.24;91.75
12913;BME280;6524;51.368;11.984;2022-10-19T09:09:30;101578.97;;;14.50;90.94
12913;BME280;6524;51.368;11.984;2022-10-19T09:14:34;101580.38;;;14.64;83.57
12913;BME280;6524;51.368;11.984;2022-10-19T09:19:37;101588.06;;;14.70;83.94
12913;BME280;6524;51.368;11.984;2022-10-19T09:24:42;101586.06;;;14.78;83.50
12913;BME280;6524;51.368;11.984;2022-10-19T09:29:53;101588.03;;;14.99;81.44
12913;BME280;6524;51.368;11.984;2022-10-19T09:34:57;101585.56;;;15.21;79.12
12913;BME280;6524;51.368;11.984;2022-10-19T09:40:00;101589.66;;;15.30;73.49
12913;BME280;6524;51.368;11.984;2022-10-19T09:45:12;101587.88;;;15.57;70.41
12913;BME280;6524;51.368;11.984;2022-10-19T09:50:22;101592.09;;;16.13;66.39
12913;BME280;6524;51.368;11.984;2022-10-19T09:55:41;101599.72;;;16.68;63.62
12913;BME280;6524;51.368;11.984;2022-10-19T10:00:50;101599.53;;;16.96;61.80
12913;BME280;6524;51.368;11.984;2022-10-19T10:05:52;101596.88;;;17.60;58.87
12913;BME280;6524;51.368;11.984;2022-10-19T10:16:28;101591.06;;;19.27;55.34
12913;BME280;6524;51.368;11.984;2022-10-19T10:21:45;101595.84;;;18.63;53.97
12913;BME280;6524;51.368;11.984;2022-10-19T10:26:48;101593.38;;;18.02;58.98
12913;BME280;6524;51.368;11.984;2022-10-19T10:32:03;101591.31;;;17.25;60.55
12913;BME280;6524;51.368;11.984;2022-10-19T10:37:06;101593.97;;;16.58;62.06
12913;BME280;6524;51.368;11.984;2022-10-19T10:42:14;101592.91;;;16.62;61.59
12913;BME280;6524;51.368;11.984;2022-10-19T10:47:17;101588.81;;;16.55;63.22
12913;BME280;6524;51.368;11.984;2022-10-19T10:52:20;101594.19;;;16.52;60.36
12913;BME280;6524;51.368;11.984;2022-10-19T10:57:21;101586.84;;;17.27;59.17
12913;BME280;6524;51.368;11.984;2022-10-19T11:02:44;101584.34;;;19.73;54.14
12913;BME280;6524;51.368;11.984;2022-10-19T11:07:52;101587.00;;;18.64;53.64
12913;BME280;6524;51.368;11.984;2022-10-19T11:13:16;101587.28;;;17.79;55.40
12913;BME280;6524;51.368;11.984;2022-10-19T11:18:31;101578.19;;;17.46;57.57
12913;BME280;6524;51.368;11.984;2022-10-19T11:23:53;101575.03;;;16.94;59.54
12913;BME280;6524;51.368;11.984;2022-10-19T11:29:18;101579.97;;;16.56;60.52
12913;BME280;6524;51.368;11.984;2022-10-19T11:50:43;101544.63;;;16.16;66.97
12913;BME280;6524;51.368;11.984;2022-10-19T11:56:08;101542.81;;;16.18;65.89
12913;BME280;6524;51.368;11.984;2022-10-19T12:01:21;101543.38;;;16.03;68.68
12913;BME280;6524;51.368;11.984;2022-10-19T12:16:42;101523.69;;;15.89;70.03
12913;BME280;6524;51.368;11.984;2022-10-19T12:21:43;101526.66;;;15.80;69.33
12913;BME280;6524;51.368;11.984;2022-10-19T12:26:45;101513.72;;;15.74;70.46
12913;BME280;6524;51.368;11.984;2022-10-19T12:31:47;101510.75;;;15.83;71.10
12913;BME280;6524;51.368;11.984;2022-10-19T12:47:21;101505.28;;;15.89;68.87
12913;BME280;6524;51.368;11.984;2022-10-19T12:52:37;101495.03;;;15.82;69.23
12913;BME280;6524;51.368;11.984;2022-10-19T12:57:38;101491.13;;;15.68;68.61
12913;BME280;6524;51.368;11.984;2022-10-19T13:02:40;101503.97;;;15.76;68.82
12913;BME280;6524;51.368;11.984;2022-10-19T13:07:40;101499.81;;;15.70;67.00
12913;BME280;6524;51.368;11.984;2022-10-19T13:12:44;101487.44;;;15.74;65.97
12913;BME280;6524;51.368;11.984;2022-10-19T13:17:44;101502.56;;;15.67;65.17
12913;BME280;6524;51.368;11.984;2022-10-19T13:54:46;101500.56;;;15.74;66.47
12913;BME280;6524;51.368;11.984;2022-10-19T14:05:23;101482.78;;;15.56;65.62
12913;BME280;6524;51.368;11.984;2022-10-19T14:10:26;101475.22;;;15.46;65.09
12913;BME280;6524;51.368;11.984;2022-10-19T14:15:29;101475.13;;;15.49;65.99
12913;BME280;6524;51.368;11.984;2022-10-19T14:20:33;101474.16;;;15.52;65.22
12913;BME280;6524;51.368;11.984;2022-10-19T14:25:33;101479.19;;;15.58;65.97
12913;BME280;6524;51.368;11.984;2022-10-19T14:30:35;101472.53;;;15.48;65.95
12913;BME280;6524;51.368;11.984;2022-10-19T14:35:38;101467.06;;;15.29;66.37
12913;BME280;6524;51.368;11.984;2022-10-19T14:40:40;101467.06;;;15.29;65.48
12913;BME280;6524;51.368;11.984;2022-10-19T14:45:40;101465.16;;;15.34;66.65
12913;BME280;6524;51.368;11.984;2022-10-19T14:50:46;101463.75;;;15.24;66.36
12913;BME280;6524;51.368;11.984;2022-10-19T14:55:51;101457.91;;;15.16;65.72
12913;BME280;6524;51.368;11.984;2022-10-19T15:00:53;101460.72;;;15.10;66.28
12913;BME280;6524;51.368;11.984;2022-10-19T15:06:00;101459.13;;;15.06;67.34
12913;BME280;6524;51.368;11.984;2022-10-19T15:11:03;101459.63;;;14.90;67.05
12913;BME280;6524;51.368;11.984;2022-10-19T15:16:05;101452.31;;;15.00;67.72
12913;BME280;6524;51.368;11.984;2022-10-19T15:21:14;101457.84;;;14.91;67.28
12913;BME280;6524;51.368;11.984;2022-10-19T15:26:20;101458.22;;;14.80;67.80
12913;BME280;6524;51.368;11.984;2022-10-19T15:31:27;101444.94;;;14.58;68.18
12913;BME280;6524;51.368;11.984;2022-10-19T15:36:30;101446.72;;;14.57;68.11
12913;BME280;6524;51.368;11.984;2022-10-19T15:41:33;101443.53;;;14.46;68.38
12913;BME280;6524;51.368;11.984;2022-10-19T15:46:56;101440.81;;;14.49;69.02
12913;BME280;6524;51.368;11.984;2022-10-19T15:57:34;101459.94;;;14.25;68.62
12913;BME280;6524;51.368;11.984;2022-10-19T16:02:34;101441.38;;;14.31;67.53
12913;BME280;6524;51.368;11.984;2022-10-19T16:07:37;101455.28;;;14.05;68.28
12913;BME280;6524;51.368;11.984;2022-10-19T16:12:38;101453.44;;;14.08;68.72
12913;BME280;6524;51.368;11.984;2022-10-19T16:17:39;101455.50;;;13.97;70.21
12913;BME280;6524;51.368;11.984;2022-10-19T16:22:39;101456.47;;;13.95;67.65
12913;BME280;6524;51.368;11.984;2022-10-19T16:27:40;101464.16;;;14.01;69.20
12913;BME280;6524;51.368;11.984;2022-10-19T16:32:40;101463.25;;;14.02;68.73
12913;BME280;6524;51.368;11.984;2022-10-19T16:37:41;101447.53;;;14.00;68.06
12913;BME280;6524;51.368;11.984;2022-10-19T16:42:41;101455.50;;;13.97;68.94
12913;BME280;6524;51.368;11.984;2022-10-19T16:47:42;101452.16;;;13.92;68.30
12913;BME280;6524;51.368;11.984;2022-10-19T16:52:42;101455.69;;;13.91;68.35
12913;BME280;6524;51.368;11.984;2022-10-19T16:57:42;101455.75;;;13.88;69.28
12913;BME280;6524;51.368;11.984;2022-10-19T17:02:43;101467.06;;;13.60;67.13
12913;BME280;6524;51.368;11.984;2022-10-19T17:07:43;101460.25;;;13.53;67.01
12913;BME280;6524;51.368;11.984;2022-10-19T17:12:43;101466.38;;;13.54;68.21
12913;BME280;6524;51.368;11.984;2022-10-19T17:17:43;101451.50;;;13.54;66.71
12913;BME280;6524;51.368;11.984;2022-10-19T17:22:44;101457.00;;;13.45;68.65
12913;BME280;6524;51.368;11.984;2022-10-19T17:27:49;101471.13;;;13.38;69.50
12913;BME280;6524;51.368;11.984;2022-10-19T17:32:49;101458.44;;;13.23;69.59
12913;BME280;6524;51.368;11.984;2022-10-19T17:37:49;101457.91;;;13.08;70.14
12913;BME280;6524;51.368;11.984;2022-10-19T17:42:50;101456.53;;;12.95;70.19
12913;BME280;6524;51.368;11.984;2022-10-19T17:47:50;101455.25;;;12.76;71.66
12913;BME280;6524;51.368;11.984;2022-10-19T17:52:50;101451.66;;;12.42;72.18
12913;BME280;6524;51.368;11.984;2022-10-19T17:57:51;101453.44;;;12.42;72.51
12913;BME280;6524;51.368;11.984;2022-10-19T18:02:51;101448.56;;;12.25;74.88
12913;BME280;6524;51.368;11.984;2022-10-19T18:07:51;101446.25;;;12.11;75.97
12913;BME280;6524;51.368;11.984;2022-10-19T18:12:52;101439.53;;;12.01;79.21
12913;BME280;6524;51.368;11.984;2022-10-19T18:17:53;101448.84;;;11.69;80.46
12913;BME280;6524;51.368;11.984;2022-10-19T18:22:53;101442.34;;;11.44;80.68
12913;BME280;6524;51.368;11.984;2022-10-19T18:27:53;101445.44;;;11.19;82.19
12913;BME280;6524;51.368;11.984;2022-10-19T18:32:54;101436.09;;;11.06;83.12
12913;BME280;6524;51.368;11.984;2022-10-19T18:37:54;101439.84;;;10.89;84.22
12913;BME280;6524;51.368;11.984;2022-10-19T18:42:54;101422.88;;;10.64;85.09
12913;BME280;6524;51.368;11.984;2022-10-19T18:47:55;101427.25;;;10.62;85.73
12913;BME280;6524;51.368;11.984;2022-10-19T18:52:55;101426.72;;;10.41;87.15
12913;BME280;6524;51.368;11.984;2022-10-19T18:57:55;101426.91;;;10.29;87.18
12913;BME280;6524;51.368;11.984;2022-10-19T19:02:56;101414.25;;;10.00;89.41
12913;BME280;6524;51.368;11.984;2022-10-19T19:07:56;101415.22;;;9.91;89.74
12913;BME280;6524;51.368;11.984;2022-10-19T19:12:56;101420.34;;;9.98;89.27
12913;BME280;6524;51.368;11.984;2022-10-19T19:17:57;101418.66;;;9.96;89.21
12913;BME280;6524;51.368;11.984;2022-10-19T19:22:57;101425.81;;;9.79;89.34
12913;BME280;6524;51.368;11.984;2022-10-19T19:27:57;101426.81;;;9.69;91.08
12913;BME280;6524;51.368;11.984;2022-10-19T19:32:58;101422.59;;;9.56;91.50
12913;BME280;6524;51.368;11.984;2022-10-19T19:37:58;101422.56;;;9.59;90.66
12913;BME280;6524;51.368;11.984;2022-10-19T19:42:59;101420.88;;;9.55;90.68
12913;BME280;6524;51.368;11.984;2022-10-19T19:47:59;101426.25;;;9.39;91.41
12913;BME280;6524;51.368;11.984;2022-10-19T19:53:00;101420.16;;;9.43;90.88
12913;BME280;6524;51.368;11.984;2022-10-19T19:58:01;101417.72;;;9.28;92.00
12913;BME280;6524;51.368;11.984;2022-10-19T20:03:01;101417.72;;;9.28;91.91
12913;BME280;6524;51.368;11.984;2022-10-19T20:08:02;101414.28;;;9.23;93.42
12913;BME280;6524;51.368;11.984;2022-10-19T20:13:02;101407.34;;;9.23;93.21
12913;BME280;6524;51.368;11.984;2022-10-19T20:18:03;101410.75;;;9.32;92.46
12913;BME280;6524;51.368;11.984;2022-10-19T20:23:03;101407.56;;;9.03;94.01
12913;BME280;6524;51.368;11.984;2022-10-19T20:28:03;101397.13;;;9.07;93.91
12913;BME280;6524;51.368;11.984;2022-10-19T20:33:07;101397.88;;;9.15;93.08
12913;BME280;6524;51.368;11.984;2022-10-19T20:38:07;101399.59;;;9.17;93.66
12913;BME280;6524;51.368;11.984;2022-10-19T20:43:07;101395.38;;;9.06;95.67
12913;BME280;6524;51.368;11.984;2022-10-19T20:48:07;101387.47;;;9.15;96.64
12913;BME280;6524;51.368;11.984;2022-10-19T20:53:08;101391.06;;;9.04;97.61
12913;BME280;6524;51.368;11.984;2022-10-19T20:58:10;101385.03;;;9.02;97.22
12913;BME280;6524;51.368;11.984;2022-10-19T21:03:10;101381.47;;;9.10;97.18
12913;BME280;6524;51.368;11.984;2022-10-19T21:08:10;101376.41;;;8.97;97.81
12913;BME280;6524;51.368;11.984;2022-10-19T21:13:14;101367.81;;;8.86;98.49
12913;BME280;6524;51.368;11.984;2022-10-19T21:18:14;101364.44;;;8.81;96.11
12913;BME280;6524;51.368;11.984;2022-10-19T21:23:14;101365.34;;;8.75;96.51
12913;BME280;6524;51.368;11.984;2022-10-19T21:28:15;101357.63;;;8.65;96.86
12913;BME280;6524;51.368;11.984;2022-10-19T21:33:15;101349.09;;;8.50;98.29
12913;BME280;6524;51.368;11.984;2022-10-19T21:38:15;101347.41;;;8.46;98.39
12913;BME280;6524;51.368;11.984;2022-10-19T21:43:16;101345.53;;;8.61;96.22
12913;BME280;6524;51.368;11.984;2022-10-19T21:48:16;101356.06;;;8.45;94.69
12913;BME280;6524;51.368;11.984;2022-10-19T21:53:20;101351.88;;;8.24;96.93
12913;BME280;6524;51.368;11.984;2022-10-19T21:58:22;101344.97;;;8.17;97.58
12913;BME280;6524;51.368;11.984;2022-10-19T22:03:22;101344.13;;;8.14;98.12
12913;BME280;6524;51.368;11.984;2022-10-19T22:08:23;101340.59;;;8.25;97.81
12913;BME280;6524;51.368;11.984;2022-10-19T22:13:24;101335.38;;;8.27;95.84
12913;BME280;6524;51.368;11.984;2022-10-19T22:18:24;101338.03;;;8.19;95.40
12913;BME280;6524;51.368;11.984;2022-10-19T22:23:25;101323.53;;;7.89;98.24
12913;BME280;6524;51.368;11.984;2022-10-19T22:28:25;101331.25;;;8.03;96.59
12913;BME280;6524;51.368;11.984;2022-10-19T22:33:26;101321.78;;;7.91;95.49
12913;BME280;6524;51.368;11.984;2022-10-19T22:38:27;101316.66;;;7.79;96.48
12913;BME280;6524;51.368;11.984;2022-10-19T22:43:27;101314.97;;;7.75;97.92
12913;BME280;6524;51.368;11.984;2022-10-19T22:48:28;101314.91;;;7.87;95.83
12913;BME280;6524;51.368;11.984;2022-10-19T22:53:28;101308.06;;;7.71;96.93
12913;BME280;6524;51.368;11.984;2022-10-19T22:58:28;101301.09;;;7.79;95.59
12913;BME280;6524;51.368;11.984;2022-10-19T23:03:29;101294.19;;;7.78;96.22
12913;BME280;6524;51.368;11.984;2022-10-19T23:08:29;101278.69;;;7.65;95.74
12913;BME280;6524;51.368;11.984;2022-10-19T23:13:30;101279.59;;;7.58;96.46
12913;BME280;6524;51.368;11.984;2022-10-19T23:18:35;101270.97;;;7.49;97.47
12913;BME280;6524;51.368;11.984;2022-10-19T23:23:36;101276.09;;;7.65;95.58
12913;BME280;6524;51.368;11.984;2022-10-19T23:28:38;101271.88;;;7.49;96.05
12913;BME280;6524;51.368;11.984;2022-10-19T23:33:39;101275.22;;;7.63;95.32
12913;BME280;6524;51.368;11.984;2022-10-19T23:38:40;101285.69;;;7.45;96.03
12913;BME280;6524;51.368;11.984;2022-10-19T23:43:44;101278.03;;;7.25;97.49
12913;BME280;6524;51.368;11.984;2022-10-19T23:48:45;101268.47;;;7.32;98.25
12913;BME280;6524;51.368;11.984;2022-10-19T23:53:47;101271.97;;;7.28;98.50
12913;BME280;6524;51.368;11.984;2022-10-19T23:58:51;101269.34;;;7.34;98.11
